PWSweather.com
Personal Weather Stations
Station Observations
PITCARMI1
La Serra, CarmignanoIT 59015

La SerraCarmignanoIT 59015

Lat: 43.804429, Lon: 11.027222

Elevation: 525

Station Type: Davis Vantage Vue

http://www.meteocarmignano.it

Latest ConditionsUpdated 11:00:01 AM GMT+01:01 Sunday, Jun 26, 2016
Currently Today's Max Today's Min Today's Average
Temperature 83.2°F28.4°C 83.2°F28.4°C 66.2°F19.0°C 72.1°F22.3°C
Dew Point 65.8°F18.8°C 67.2°F19.6°C 62.9°F17.2°C 64.7°F18.2°C
Winds 3.5 mph SW5.6 kmh SW 5.8 mph W9.3 kmh W - 0.6 mph 1.0 kmh
Wind Gusts 3.5 mph5.6 kmh 8.1 mph13.0 kmh - -
Humidity 56% 89% 55% 79%
Pressure 29.91 in1012.9 mb 29.91 in1012.9 mb 29.86 in1011.2 mb -
Hour Temp Dew Point Humidity Winds Wind Gusts Pressure Precip Precip Rate Daily Precip Total
11:00 AM 83.2°F28.4°C 65.8°F18.8°C 56% 3.5 mph SW5.6 kmh SW 3.5 mph5.6 kmh 29.91 in1012.9 mb - 0.00 in0.0 mm 0.00 in0.0 mm
10:30 AM 81.7°F27.6°C 64.0°F17.8°C 55% 5.8 mph W9.3 kmh W 8.1 mph13.0 kmh 29.91 in1012.9 mb - 0.00 in0.0 mm 0.00 in0.0 mm
10:00 AM 81.5°F27.5°C 67.2°F19.6°C 62% 1.2 mph E1.9 kmh E 2.3 mph3.7 kmh 29.91 in1012.9 mb - 0.00 in0.0 mm 0.00 in0.0 mm
09:30 AM 79.8°F26.6°C 67.0°F19.4°C 65% 2.3 mph E3.7 kmh E 5.8 mph9.3 kmh 29.90 in1012.5 mb - 0.00 in0.0 mm 0.00 in0.0 mm
09:00 AM 78.6°F25.9°C 66.7°F19.3°C 67% Calm Calm 2.3 mph3.7 kmh 29.91 in1012.9 mb - 0.00 in0.0 mm 0.00 in0.0 mm
08:30 AM 77.4°F25.2°C 66.4°F19.1°C 69% Calm Calm 1.2 mph1.9 kmh 29.90 in1012.5 mb - 0.00 in0.0 mm 0.00 in0.0 mm
08:00 AM 73.6°F23.1°C 66.3°F19.1°C 78% Calm Calm -- 29.91 in1012.9 mb - 0.00 in0.0 mm 0.00 in0.0 mm
07:30 AM 72.3°F22.4°C 65.8°F18.8°C 80% Calm Calm -- 29.91 in1012.9 mb - 0.00 in0.0 mm 0.00 in0.0 mm
07:00 AM 72.1°F22.3°C 65.6°F18.7°C 80% Calm Calm -- 29.91 in1012.9 mb - 0.00 in0.0 mm 0.00 in0.0 mm
06:30 AM 70.8°F21.6°C 65.0°F18.3°C 82% Calm Calm -- 29.90 in1012.5 mb - 0.00 in0.0 mm 0.00 in0.0 mm
06:00 AM 69.4°F20.8°C 65.0°F18.3°C 86% Calm Calm -- 29.90 in1012.5 mb - 0.00 in0.0 mm 0.00 in0.0 mm
05:30 AM 67.0°F19.4°C 63.6°F17.6°C 89% Calm Calm -- 29.89 in1012.2 mb - 0.00 in0.0 mm 0.00 in0.0 mm
05:00 AM 66.2°F19.0°C 62.9°F17.2°C 89% Calm Calm -- 29.89 in1012.2 mb - 0.00 in0.0 mm 0.00 in0.0 mm
04:30 AM 66.7°F19.3°C 63.4°F17.4°C 89% Calm Calm -- 29.89 in1012.2 mb - 0.00 in0.0 mm 0.00 in0.0 mm
04:00 AM 66.9°F19.4°C 63.5°F17.5°C 89% Calm Calm -- 29.88 in1011.9 mb - 0.00 in0.0 mm 0.00 in0.0 mm
03:30 AM 66.9°F19.4°C 63.2°F17.3°C 88% Calm Calm -- 29.88 in1011.9 mb - 0.00 in0.0 mm 0.00 in0.0 mm
03:00 AM 67.9°F19.9°C 63.6°F17.6°C 86% Calm Calm 1.2 mph1.9 kmh 29.88 in1011.9 mb - 0.00 in0.0 mm 0.00 in0.0 mm
02:30 AM 68.4°F20.2°C 63.4°F17.4°C 84% Calm Calm -- 29.87 in1011.5 mb - 0.00 in0.0 mm 0.00 in0.0 mm
02:00 AM 68.9°F20.5°C 63.5°F17.5°C 83% Calm Calm -- 29.87 in1011.5 mb - 0.00 in0.0 mm 0.00 in0.0 mm
01:30 AM 68.6°F20.3°C 63.9°F17.7°C 85% Calm Calm -- 29.87 in1011.5 mb - 0.00 in0.0 mm 0.00 in0.0 mm
01:00 AM 69.7°F20.9°C 64.0°F17.8°C 82% Calm Calm 1.2 mph1.9 kmh 29.87 in1011.5 mb - 0.00 in0.0 mm 0.00 in0.0 mm
12:30 AM 70.1°F21.2°C 64.3°F17.9°C 82% Calm Calm -- 29.87 in1011.5 mb - 0.00 in0.0 mm 0.00 in0.0 mm
12:00 AM 69.6°F20.9°C 64.5°F18.1°C 84% Calm Calm 1.2 mph1.9 kmh 29.86 in1011.2 mb - 0.00 in0.0 mm 0.00 in0.0 mm